Time;durP1;ratioP1;P1;durP2;ratioP2;P2;SDS_P1;SDS_P2;PMS_P1;PMS_P2;Temp;Humidity;BMP_temperature;BMP_pressure;BME280_temperature;BME280_humidity;BME280_pressure;Samples;Min_cycle;Max_cycle;Signal;HPM_P1;HPM_P2
2023/06/01 00:03:45;;;;;;;25.10;10.40;;;;;;;12.71;63.05;101047.59;10090987;29;20049;-77
2023/06/01 00:08:49;;;;;;;18.42;11.43;;;;;;;12.55;63.33;101050.66;10090958;29;20052;-77
2023/06/01 00:13:52;;;;;;;20.75;10.75;;;;;;;12.39;63.59;101059.06;10090378;29;20484;-77
2023/06/01 00:18:55;;;;;;;24.23;10.63;;;;;;;12.32;63.61;101054.31;10090110;29;20041;-78
2023/06/01 00:24:00;;;;;;;19.25;11.00;;;;;;;12.43;63.26;101057.03;10087043;29;20073;-76
2023/06/01 00:29:04;;;;;;;22.02;11.18;;;;;;;12.29;63.11;101058.09;10090012;29;20045;-77
2023/06/01 00:34:07;;;;;;;20.40;11.27;;;;;;;12.25;63.42;101047.63;10089490;29;20037;-77
2023/06/01 00:39:11;;;;;;;16.88;10.25;;;;;;;12.23;63.06;101052.28;10088026;29;20081;-76
2023/06/01 00:44:14;;;;;;;22.80;11.27;;;;;;;12.10;63.53;101053.25;10072601;29;20052;-75
2023/06/01 00:49:18;;;;;;;18.60;11.10;;;;;;;12.05;63.62;101054.56;10072430;29;20045;-75
2023/06/01 00:54:22;;;;;;;21.10;11.63;;;;;;;12.00;63.38;101046.00;10072454;29;20037;-76
2023/06/01 00:59:25;;;;;;;21.67;11.50;;;;;;;12.12;63.36;101048.59;10088004;29;20049;-77
2023/06/01 01:04:28;;;;;;;19.42;10.98;;;;;;;12.05;63.11;101038.41;10088544;29;20132;-76
2023/06/01 01:09:40;;;;;;;18.85;10.50;;;;;;;12.07;63.36;101047.25;10089594;29;20539;-78
2023/06/01 01:14:51;;;;;;;20.33;10.57;;;;;;;12.14;63.12;101038.56;10070976;29;20053;-76
2023/06/01 01:20:08;;;;;;;23.42;10.95;;;;;;;12.10;63.27;101038.94;10086680;29;20691;-76
2023/06/01 01:25:26;;;;;;;17.40;9.57;;;;;;;12.15;62.99;101034.91;10091503;29;20056;-76
2023/06/01 01:30:33;;;;;;;19.90;9.70;;;;;;;12.24;62.85;101027.94;10073607;29;20077;-75
2023/06/01 01:35:38;;;;;;;18.67;9.68;;;;;;;11.93;63.72;101024.06;10095852;29;20037;-76
2023/06/01 01:40:41;;;;;;;15.57;9.32;;;;;;;12.01;63.66;101036.91;10096785;29;20045;-76
2023/06/01 01:45:49;;;;;;;17.80;9.05;;;;;;;11.96;63.65;101029.22;10076887;29;20048;-76
2023/06/01 01:50:56;;;;;;;18.67;11.13;;;;;;;12.07;63.42;101014.94;10094642;29;20041;-76
2023/06/01 01:56:00;;;;;;;15.75;8.68;;;;;;;12.04;63.67;101018.72;10093860;29;20096;-77
2023/06/01 02:01:05;;;;;;;18.80;9.82;;;;;;;12.08;63.62;101019.31;10094503;29;20056;-77
2023/06/01 02:06:08;;;;;;;13.80;8.70;;;;;;;12.20;63.49;101017.50;10093615;29;20051;-76
2023/06/01 02:11:11;;;;;;;15.63;8.65;;;;;;;12.06;63.87;101018.59;10093375;29;20140;-76
2023/06/01 02:16:16;;;;;;;14.98;8.23;;;;;;;12.08;63.98;101020.19;10091515;29;20140;-77
2023/06/01 02:21:19;;;;;;;16.60;8.88;;;;;;;12.15;63.70;101017.88;10094943;29;20080;-77
2023/06/01 02:26:22;;;;;;;14.10;8.38;;;;;;;12.31;63.58;101012.16;10078873;29;20128;-77
2023/06/01 02:31:27;;;;;;;19.85;8.75;;;;;;;12.35;63.02;101016.34;10094484;29;20052;-76
2023/06/01 02:36:31;;;;;;;20.60;8.63;;;;;;;12.23;62.94;101014.56;10093896;29;20052;-77
2023/06/01 02:41:35;;;;;;;17.75;8.38;;;;;;;12.10;62.61;101015.53;10090588;29;20053;-77
2023/06/01 02:46:39;;;;;;;16.17;8.60;;;;;;;11.94;63.07;101020.41;10076734;29;20049;-76
2023/06/01 02:51:42;;;;;;;16.60;9.27;;;;;;;11.92;63.06;101016.94;10077135;29;20139;-77
2023/06/01 02:56:54;;;;;;;19.20;9.50;;;;;;;11.81;63.68;101012.38;10089822;29;20069;-77
2023/06/01 03:02:01;;;;;;;17.17;8.73;;;;;;;11.98;63.48;101016.47;10076891;29;20048;-77
2023/06/01 03:07:06;;;;;;;18.52;9.27;;;;;;;11.93;63.20;101016.84;10076189;29;20501;-77
2023/06/01 03:12:12;;;;;;;16.85;9.30;;;;;;;12.00;62.97;101016.38;10075598;29;20132;-77
2023/06/01 03:17:17;;;;;;;18.27;9.98;;;;;;;12.03;63.20;101016.97;10090984;29;20080;-76
2023/06/01 03:22:20;;;;;;;16.70;9.93;;;;;;;11.87;63.61;101011.06;10076251;29;20128;-77
2023/06/01 03:27:23;;;;;;;20.13;9.50;;;;;;;11.97;63.43;101009.38;10075564;29;20096;-77
2023/06/01 03:32:27;;;;;;;17.65;9.60;;;;;;;12.01;63.29;101002.78;10073779;29;20124;-76
2023/06/01 03:37:33;;;;;;;21.90;10.27;;;;;;;12.15;63.16;100999.03;10090366;29;20055;-76
2023/06/01 03:42:36;;;;;;;22.13;10.32;;;;;;;11.99;63.22;101006.59;10074478;29;20053;-77
2023/06/01 03:47:40;;;;;;;19.20;10.32;;;;;;;11.95;63.45;101009.50;10089239;29;20554;-76
2023/06/01 03:52:43;;;;;;;21.27;10.55;;;;;;;11.87;63.01;101006.53;10075259;29;20045;-77
2023/06/01 03:57:47;;;;;;;20.08;10.52;;;;;;;12.06;63.09;101015.88;10073549;29;20135;-76
2023/06/01 04:02:53;;;;;;;19.92;9.93;;;;;;;11.94;62.52;101015.88;10074607;29;20078;-77
2023/06/01 04:07:56;;;;;;;20.63;11.05;;;;;;;11.77;63.21;101000.16;10077983;29;20103;-77
2023/06/01 04:12:59;;;;;;;21.17;11.15;;;;;;;11.80;62.92;101005.31;10090443;29;20053;-77
2023/06/01 04:18:06;;;;;;;19.98;9.52;;;;;;;11.78;62.60;101003.69;10089103;29;20053;-76
2023/06/01 04:23:30;;;;;;;22.60;10.90;;;;;;;11.80;62.72;101001.75;10089956;29;20061;-77
2023/06/01 04:28:33;;;;;;;25.73;12.85;;;;;;;11.86;62.51;101001.28;10072622;29;20097;-77
2023/06/01 04:33:40;;;;;;;20.15;10.70;;;;;;;12.09;61.96;101002.19;10089733;29;20159;-76
2023/06/01 04:38:43;;;;;;;25.63;12.23;;;;;;;12.17;61.33;100997.06;10086310;29;20584;-76
2023/06/01 04:43:51;;;;;;;18.65;11.15;;;;;;;12.08;61.32;101000.47;10072052;29;20470;-76
2023/06/01 04:48:57;;;;;;;21.13;11.38;;;;;;;12.24;61.16;101003.69;10035955;29;20049;-76
2023/06/01 04:54:01;;;;;;;22.17;12.02;;;;;;;12.11;61.27;101001.09;10057093;29;20065;-77
2023/06/01 04:59:05;;;;;;;27.10;12.85;;;;;;;12.32;60.68;100995.03;10038405;29;20504;-77
2023/06/01 05:04:10;;;;;;;20.38;12.68;;;;;;;12.33;60.61;101000.28;10034088;29;21306;-75
2023/06/01 05:09:14;;;;;;;22.60;12.13;;;;;;;12.38;60.21;101003.50;10051775;29;20053;-76
2023/06/01 05:14:17;;;;;;;20.02;12.18;;;;;;;12.32;60.53;100990.50;10051050;29;20157;-76
2023/06/01 05:19:22;;;;;;;21.17;12.80;;;;;;;12.39;60.54;100999.81;10035458;29;20081;-77
2023/06/01 05:24:28;;;;;;;23.17;13.02;;;;;;;12.48;60.70;101008.13;10034545;29;20053;-75
2023/06/01 05:29:31;;;;;;;23.15;14.07;;;;;;;12.63;60.34;100998.84;10050938;29;20045;-76
2023/06/01 05:34:35;;;;;;;24.80;12.50;;;;;;;12.80;60.19;100997.47;10050144;29;20057;-76
2023/06/01 05:39:39;;;;;;;26.52;12.18;;;;;;;12.16;61.26;100998.91;10052526;29;20950;-77
2023/06/01 05:44:43;;;;;;;26.70;12.60;;;;;;;12.64;61.19;100999.69;10033951;29;20052;-78
2023/06/01 05:49:47;;;;;;;22.35;11.68;;;;;;;12.64;60.86;101003.25;10051363;29;20136;-76
2023/06/01 05:54:53;;;;;;;20.75;12.40;;;;;;;12.66;60.54;101001.28;10051275;29;20057;-77
2023/06/01 05:59:56;;;;;;;27.80;13.55;;;;;;;12.71;61.05;101009.03;10035571;29;20100;-76
2023/06/01 06:05:00;;;;;;;25.42;14.15;;;;;;;12.73;60.81;101016.00;10046152;29;20149;-76
2023/06/01 06:10:04;;;;;;;25.98;13.60;;;;;;;12.30;61.09;101019.41;10048935;29;20560;-76
2023/06/01 06:15:08;;;;;;;26.50;15.32;;;;;;;12.52;61.48;101015.03;10049368;29;20053;-75
2023/06/01 06:20:15;;;;;;;25.35;15.55;;;;;;;12.57;61.00;101008.28;10054424;29;20045;-76
2023/06/01 06:25:18;;;;;;;26.77;16.27;;;;;;;12.82;60.19;101017.09;10055512;29;20057;-77
2023/06/01 06:30:21;;;;;;;27.10;15.85;;;;;;;12.90;60.41;101013.78;10058346;29;20096;-76
2023/06/01 06:35:25;;;;;;;27.50;16.30;;;;;;;13.10;60.44;101018.41;10056133;29;20056;-76
2023/06/01 06:40:28;;;;;;;30.70;18.17;;;;;;;12.78;60.15;101018.31;10055544;29;20508;-76
2023/06/01 06:45:31;;;;;;;24.83;15.57;;;;;;;12.48;61.85;101022.50;10039121;29;20053;-75
2023/06/01 06:50:36;;;;;;;34.13;17.17;;;;;;;12.69;61.71;101022.59;10055949;29;20059;-76
2023/06/01 06:55:39;;;;;;;34.92;17.25;;;;;;;11.88;63.99;101031.63;10055908;29;20079;-75
2023/06/01 07:00:43;;;;;;;28.95;16.20;;;;;;;12.22;63.13;101026.34;10054299;29;20555;-76
2023/06/01 07:05:47;;;;;;;34.08;17.15;;;;;;;12.64;62.59;101015.88;10056002;29;20053;-75
2023/06/01 07:10:50;;;;;;;29.48;15.85;;;;;;;12.89;61.85;101030.94;10054586;29;20056;-75
2023/06/01 07:15:53;;;;;;;24.52;15.05;;;;;;;12.80;61.60;101019.91;10054048;29;20132;-75
2023/06/01 07:20:58;;;;;;;26.73;14.07;;;;;;;12.42;63.31;101017.56;10056767;29;20061;-75
2023/06/01 07:26:01;;;;;;;31.02;13.48;;;;;;;12.66;62.11;101019.31;10054196;29;20057;-77
2023/06/01 07:31:04;;;;;;;21.85;12.55;;;;;;;13.02;62.21;101013.63;10051666;29;20057;-77
2023/06/01 07:36:08;;;;;;;24.95;13.80;;;;;;;13.45;61.63;101015.53;10052936;29;20111;-77
2023/06/01 07:41:11;;;;;;;24.73;11.52;;;;;;;13.67;59.91;101013.75;10056427;29;20789;-77
2023/06/01 07:46:14;;;;;;;22.67;11.77;;;;;;;12.45;62.87;101016.47;10051841;29;20600;-77
2023/06/01 07:51:19;;;;;;;22.08;11.57;;;;;;;13.24;61.66;101025.38;10053281;29;20045;-77
2023/06/01 07:56:26;;;;;;;22.70;12.10;;;;;;;13.19;62.04;101022.19;10051157;29;20060;-75
2023/06/01 08:01:29;;;;;;;23.02;11.77;;;;;;;13.43;61.25;101022.03;10055088;29;20088;-76
2023/06/01 08:06:35;;;;;;;25.00;12.32;;;;;;;13.80;60.15;101019.81;10053613;29;20052;-76
2023/06/01 08:11:38;;;;;;;25.48;13.35;;;;;;;13.91;59.17;101024.31;10054404;29;20057;-75
2023/06/01 08:16:42;;;;;;;25.98;12.00;;;;;;;13.50;60.11;101023.25;10051827;29;20260;-77
2023/06/01 08:21:46;;;;;;;25.50;13.45;;;;;;;13.04;62.68;101029.69;10038752;29;20175;-76
2023/06/01 08:26:50;;;;;;;20.23;11.85;;;;;;;13.48;61.02;101025.22;10051798;29;20052;-76
2023/06/01 08:31:53;;;;;;;23.67;12.60;;;;;;;13.78;60.51;101023.63;10049590;29;20061;-76
2023/06/01 08:36:57;;;;;;;24.00;12.45;;;;;;;13.24;61.67;101020.81;10051273;29;20059;-76
2023/06/01 08:42:08;;;;;;;22.40;10.50;;;;;;;12.31;64.71;101020.25;10052280;29;20099;-77
2023/06/01 08:47:15;;;;;;;23.50;11.45;;;;;;;13.33;63.08;101008.44;10039353;29;20053;-76
2023/06/01 08:52:21;;;;;;;19.52;9.55;;;;;;;13.37;62.51;101012.63;10049649;29;20053;-77
2023/06/01 08:57:24;;;;;;;15.60;9.25;;;;;;;12.92;64.55;101011.84;10051509;29;20076;-76
2023/06/01 09:02:28;;;;;;;14.50;8.93;;;;;;;13.30;63.28;101015.91;10049596;29;20064;-76
2023/06/01 09:07:32;;;;;;;16.58;8.80;;;;;;;14.16;61.15;101012.25;10052608;29;20526;-76
2023/06/01 09:12:40;;;;;;;18.73;8.73;;;;;;;14.21;60.18;101006.47;10048952;29;20055;-78
2023/06/01 09:17:46;;;;;;;13.45;8.10;;;;;;;14.51;59.97;101003.81;10050257;29;20055;-76
2023/06/01 09:22:50;;;;;;;16.00;8.23;;;;;;;14.73;58.88;100993.81;10051019;29;20078;-76
2023/06/01 09:27:54;;;;;;;11.95;7.97;;;;;;;13.76;61.87;100983.25;10037166;29;20057;-77
2023/06/01 09:33:10;;;;;;;14.20;8.15;;;;;;;13.43;62.75;100992.34;10050219;29;20133;-77
2023/06/01 09:38:22;;;;;;;18.02;9.65;;;;;;;13.46;62.83;100987.53;10054717;29;20053;-76
2023/06/01 09:43:25;;;;;;;18.40;9.52;;;;;;;13.59;62.82;100992.78;10033690;29;20402;-77
2023/06/01 09:48:29;;;;;;;14.38;8.45;;;;;;;13.45;62.21;100987.69;10052220;29;20103;-77
2023/06/01 09:53:42;;;;;;;13.98;8.20;;;;;;;14.33;61.30;100971.09;10053091;29;20060;-76
2023/06/01 09:58:45;;;;;;;16.38;8.50;;;;;;;14.33;60.10;100971.09;10043091;29;20553;-77
2023/06/01 10:03:53;;;;;;;11.55;7.63;;;;;;;14.17;61.11;100973.44;10057139;29;20516;-75
2023/06/01 10:08:58;;;;;;;13.55;7.13;;;;;;;13.60;62.70;100967.53;10057633;29;20067;-76
2023/06/01 10:14:01;;;;;;;16.60;7.97;;;;;;;13.45;64.02;100968.81;10055722;29;20045;-76
2023/06/01 10:19:04;;;;;;;12.68;8.18;;;;;;;14.12;62.28;100968.44;10057653;29;20193;-77
2023/06/01 10:24:10;;;;;;;10.20;6.07;;;;;;;14.20;61.33;100959.66;10059258;29;20065;-76
2023/06/01 10:29:14;;;;;;;8.07;5.43;;;;;;;14.54;59.81;100954.88;10055518;29;20056;-75
2023/06/01 10:34:37;;;;;;;6.90;5.20;;;;;;;14.89;59.73;100963.50;10054887;29;20090;-75
2023/06/01 10:39:42;;;;;;;7.70;5.15;;;;;;;15.20;59.34;100956.19;10054932;29;20064;-77
2023/06/01 10:44:49;;;;;;;10.90;5.68;;;;;;;14.32;60.82;100955.03;10054067;29;20052;-76
2023/06/01 10:50:11;;;;;;;8.65;5.40;;;;;;;14.29;61.74;100964.25;10056563;29;20054;-76
2023/06/01 10:55:23;;;;;;;8.10;5.10;;;;;;;15.49;59.12;100950.78;10056029;29;20048;-75
2023/06/01 11:00:29;;;;;;;8.57;4.75;;;;;;;15.94;57.19;100947.50;10053354;29;20045;-74
2023/06/01 11:05:37;;;;;;;6.65;5.22;;;;;;;15.50;57.52;100957.09;10037458;29;21118;-76
2023/06/01 11:11:02;;;;;;;9.68;5.65;;;;;;;15.64;57.22;100957.50;10053888;29;20052;-75
2023/06/01 11:16:29;;;;;;;7.18;5.57;;;;;;;15.85;57.24;100954.63;10054794;29;20183;-76
2023/06/01 11:21:35;;;;;;;11.25;6.38;;;;;;;14.20;61.77;100964.19;10053834;29;20506;-76
2023/06/01 11:26:42;;;;;;;9.23;6.38;;;;;;;14.87;59.99;100946.59;10053327;29;20053;-75
2023/06/01 11:31:47;;;;;;;5.97;5.13;;;;;;;15.46;59.15;100948.38;10054111;29;20051;-75
2023/06/01 11:36:51;;;;;;;6.28;5.35;;;;;;;15.52;58.17;100946.94;10053351;29;20592;-75
2023/06/01 11:42:07;;;;;;;10.27;5.63;;;;;;;15.00;60.13;100939.91;10055749;29;20091;-76
2023/06/01 11:47:12;;;;;;;8.68;6.18;;;;;;;15.56;58.69;100943.81;10057152;29;20057;-76
2023/06/01 11:52:15;;;;;;;8.50;5.50;;;;;;;15.66;57.67;100943.78;10037815;29;20053;-75
2023/06/01 11:57:20;;;;;;;11.25;6.25;;;;;;;15.82;56.87;100937.78;10053095;29;20057;-75
2023/06/01 12:02:25;;;;;;;9.25;6.20;;;;;;;15.26;58.32;100944.78;10052680;29;20063;-75
2023/06/01 12:07:29;;;;;;;10.68;6.10;;;;;;;15.93;57.16;100937.63;10051440;29;20045;-75
2023/06/01 12:12:36;;;;;;;8.65;6.40;;;;;;;15.82;56.75;100933.22;10053468;29;20123;-75
2023/06/01 12:17:49;;;;;;;7.53;5.07;;;;;;;16.00;57.49;100927.09;10053028;29;20057;-76
2023/06/01 12:22:55;;;;;;;8.60;5.95;;;;;;;14.49;61.19;100930.09;10052603;29;20060;-75
2023/06/01 12:28:07;;;;;;;8.32;6.10;;;;;;;15.40;59.57;100925.44;10053074;29;20213;-77
2023/06/01 12:33:10;;;;;;;7.25;5.85;;;;;;;15.51;58.72;100921.72;10053872;29;20672;-76
2023/06/01 12:38:13;;;;;;;7.53;5.07;;;;;;;14.65;60.82;100926.88;10053765;29;20072;-76
2023/06/01 12:43:20;;;;;;;5.63;4.78;;;;;;;15.53;58.52;100933.28;10032595;29;20053;-76
2023/06/01 12:48:33;;;;;;;6.90;5.97;;;;;;;15.28;58.65;100929.28;10052123;29;20064;-76
2023/06/01 12:53:36;;;;;;;5.60;4.72;;;;;;;14.44;60.84;100921.53;10051799;29;20104;-78
2023/06/01 12:58:41;;;;;;;10.40;5.93;;;;;;;14.85;61.02;100924.22;10036225;29;20075;-76
2023/06/01 13:03:44;;;;;;;5.93;4.60;;;;;;;15.80;58.20;100921.72;10049348;29;20068;-76
2023/06/01 13:08:47;;;;;;;7.68;5.40;;;;;;;14.66;61.09;100920.47;10051096;29;20128;-76
2023/06/01 13:13:52;;;;;;;6.60;5.07;;;;;;;15.85;57.50;100913.13;10052169;29;20556;-76
2023/06/01 13:18:55;;;;;;;5.97;4.30;;;;;;;16.12;56.98;100910.47;10051744;29;20072;-77
2023/06/01 13:23:57;;;;;;;5.07;4.57;;;;;;;15.97;57.11;100894.88;10049013;29;20510;-76
2023/06/01 13:29:06;;;;;;;7.53;4.70;;;;;;;15.56;57.91;100900.50;10040400;29;20072;-74
2023/06/01 13:34:08;;;;;;;5.80;4.40;;;;;;;16.01;57.01;100901.69;10058487;29;20063;-77
2023/06/01 13:39:11;;;;;;;4.88;4.32;;;;;;;15.98;56.24;100905.53;10041592;29;20468;-75
2023/06/01 13:44:17;;;;;;;5.43;4.68;;;;;;;15.96;57.00;100895.84;10059160;29;20058;-75
2023/06/01 13:49:20;;;;;;;4.25;3.85;;;;;;;15.68;58.04;100896.63;10040315;29;20536;-76
2023/06/01 13:54:23;;;;;;;4.60;4.15;;;;;;;16.01;58.05;100888.13;10057887;29;20140;-75
2023/06/01 13:59:27;;;;;;;4.40;3.63;;;;;;;16.08;56.37;100891.97;10057810;29;20045;-77
2023/06/01 14:04:30;;;;;;;4.43;3.35;;;;;;;16.02;56.69;100889.84;10056248;29;20059;-77
2023/06/01 14:09:33;;;;;;;6.18;3.90;;;;;;;16.06;57.73;100885.84;10056254;29;20514;-75
2023/06/01 14:14:38;;;;;;;3.90;3.50;;;;;;;15.90;56.98;100868.34;10059005;29;20057;-75
2023/06/01 14:19:40;;;;;;;3.95;3.55;;;;;;;15.50;58.01;100882.13;10056680;29;20049;-76
2023/06/01 14:24:43;;;;;;;4.30;3.90;;;;;;;16.07;57.35;100873.97;10057299;29;20481;-76
2023/06/01 14:29:48;;;;;;;4.07;3.60;;;;;;;16.01;57.77;100867.31;10056293;29;20144;-76
2023/06/01 14:34:51;;;;;;;4.85;3.53;;;;;;;15.66;58.59;100867.97;10056161;29;20075;-75
2023/06/01 14:39:54;;;;;;;4.75;4.25;;;;;;;15.47;58.99;100868.88;10037942;29;20049;-76
2023/06/01 14:44:58;;;;;;;3.90;3.55;;;;;;;14.94;60.35;100863.88;10058305;29;20060;-75
2023/06/01 14:50:08;;;;;;;4.60;4.20;;;;;;;15.01;60.69;100865.88;10058751;29;20770;-75
2023/06/01 14:55:12;;;;;;;5.97;4.95;;;;;;;15.63;59.55;100852.03;10038520;29;20264;-75
2023/06/01 15:00:19;;;;;;;5.32;4.82;;;;;;;15.91;59.21;100850.25;10056273;29;20675;-76
2023/06/01 15:05:22;;;;;;;5.25;4.60;;;;;;;15.97;59.05;100854.22;10054883;29;20056;-76
2023/06/01 15:10:25;;;;;;;7.53;4.80;;;;;;;16.01;58.83;100847.50;10056760;29;20436;-75
2023/06/01 15:15:29;;;;;;;6.95;5.20;;;;;;;15.88;57.82;100848.69;10054141;29;20055;-74
2023/06/01 15:20:32;;;;;;;6.45;5.70;;;;;;;16.22;57.40;100842.69;10055679;29;20060;-76
2023/06/01 15:25:35;;;;;;;9.07;5.88;;;;;;;16.57;56.70;100841.97;10053715;29;20540;-76
2023/06/01 15:30:39;;;;;;;7.10;5.50;;;;;;;16.50;55.09;100838.13;10056184;29;20059;-77
2023/06/01 15:35:43;;;;;;;6.57;5.50;;;;;;;16.04;56.52;100831.78;10052856;29;20045;-75
2023/06/01 15:40:47;;;;;;;7.70;5.88;;;;;;;16.19;55.50;100824.03;10054023;29;20454;-77
2023/06/01 15:45:51;;;;;;;11.90;6.57;;;;;;;15.58;55.36;100824.56;10036611;29;20505;-77
2023/06/01 15:50:54;;;;;;;12.90;6.32;;;;;;;15.68;53.80;100812.66;10035724;29;20148;-77
2023/06/01 15:55:57;;;;;;;10.18;5.28;;;;;;;14.59;56.52;100816.59;10053003;29;20057;-77
2023/06/01 16:01:01;;;;;;;9.98;5.80;;;;;;;16.26;53.92;100803.47;10054118;29;20061;-77
2023/06/01 16:06:20;;;;;;;7.40;5.22;;;;;;;16.80;50.38;100807.09;10050416;29;20053;-76
2023/06/01 16:11:23;;;;;;;8.25;4.90;;;;;;;16.35;51.61;100797.16;10038278;29;20116;-76
2023/06/01 16:16:27;;;;;;;13.40;6.55;;;;;;;15.69;52.88;100792.72;10039603;29;20160;-77
2023/06/01 16:21:30;;;;;;;8.63;6.15;;;;;;;16.43;51.54;100793.69;10055453;29;20056;-77
2023/06/01 16:26:34;;;;;;;10.13;6.40;;;;;;;16.15;52.14;100790.97;10042786;29;20064;-77
2023/06/01 16:31:39;;;;;;;10.93;6.32;;;;;;;15.89;52.42;100787.22;10045675;29;20045;-76
2023/06/01 16:36:42;;;;;;;9.32;5.10;;;;;;;16.20;53.05;100786.94;10050494;29;20057;-77
2023/06/01 16:41:44;;;;;;;9.75;6.20;;;;;;;15.78;53.35;100776.59;10051934;29;20337;-76
2023/06/01 16:46:49;;;;;;;36.42;9.18;;;;;;;15.96;53.59;100774.78;10040291;29;20060;-77
2023/06/01 16:51:52;;;;;;;13.30;5.78;;;;;;;16.02;53.52;100773.34;10051867;29;20069;-76
2023/06/01 16:56:54;;;;;;;8.57;6.55;;;;;;;15.35;53.94;100761.75;10052859;29;20065;-77
2023/06/01 17:01:59;;;;;;;14.00;5.88;;;;;;;15.48;54.38;100770.41;10050552;29;20064;-75
2023/06/01 17:07:02;;;;;;;9.02;5.55;;;;;;;15.91;53.63;100764.41;10048278;29;21295;-77
2023/06/01 17:12:06;;;;;;;13.65;5.82;;;;;;;15.96;52.62;100758.50;10051992;29;20423;-77
2023/06/01 17:17:11;;;;;;;10.60;5.72;;;;;;;15.76;52.90;100751.50;10033847;29;20053;-76
2023/06/01 17:22:14;;;;;;;11.00;5.43;;;;;;;15.75;52.40;100749.81;10052688;29;21339;-75
2023/06/01 17:27:17;;;;;;;10.65;5.53;;;;;;;15.65;53.28;100753.38;10051748;29;20065;-77
2023/06/01 17:32:23;;;;;;;11.75;5.18;;;;;;;15.47;53.69;100752.47;10037965;29;20061;-76
2023/06/01 17:37:27;;;;;;;10.77;5.95;;;;;;;15.20;54.75;100753.22;10033988;29;20048;-76
2023/06/01 17:42:29;;;;;;;12.55;5.95;;;;;;;15.24;54.40;100750.06;10044979;29;20045;-76
2023/06/01 17:47:34;;;;;;;10.73;5.75;;;;;;;15.16;54.64;100749.94;10046477;29;20136;-77
2023/06/01 17:52:37;;;;;;;12.13;6.10;;;;;;;14.65;55.13;100755.69;10049686;29;20060;-77
2023/06/01 17:57:39;;;;;;;12.57;5.50;;;;;;;14.71;54.79;100758.69;10049273;29;20049;-77
2023/06/01 18:02:44;;;;;;;14.88;6.03;;;;;;;14.40;54.79;100762.47;10051167;29;20080;-76
2023/06/01 18:07:47;;;;;;;10.25;5.30;;;;;;;14.22;55.84;100775.78;10050646;29;20218;-76
2023/06/01 18:12:50;;;;;;;12.15;6.13;;;;;;;14.09;56.25;100785.00;10052140;29;20079;-77
2023/06/01 18:17:54;;;;;;;11.02;5.93;;;;;;;14.09;56.33;100778.75;10042595;29;20048;-76
2023/06/01 18:22:58;;;;;;;16.20;6.15;;;;;;;14.22;56.33;100783.91;10063691;29;20052;-76
2023/06/01 18:28:01;;;;;;;10.13;5.60;;;;;;;13.94;56.52;100779.13;10061908;29;20059;-76
2023/06/01 18:33:05;;;;;;;9.65;6.43;;;;;;;13.81;56.26;100786.59;10061782;29;20215;-76
2023/06/01 18:38:08;;;;;;;14.85;6.30;;;;;;;13.57;56.03;100776.09;10060711;29;20053;-76
2023/06/01 18:43:13;;;;;;;10.02;6.07;;;;;;;13.69;55.41;100775.06;10055892;29;20048;-77
2023/06/01 18:48:21;;;;;;;11.73;6.22;;;;;;;13.57;54.52;100780.66;10044222;29;20049;-76
2023/06/01 18:53:24;;;;;;;16.42;6.25;;;;;;;13.40;55.42;100784.81;10041157;29;20509;-75
2023/06/01 18:58:27;;;;;;;15.38;5.68;;;;;;;13.35;55.18;100782.50;10055943;29;20056;-77
2023/06/01 19:03:31;;;;;;;12.35;6.50;;;;;;;13.41;55.30;100773.91;10056284;29;20069;-76
2023/06/01 19:08:34;;;;;;;15.32;6.22;;;;;;;13.33;55.41;100772.81;10056802;29;20045;-78
2023/06/01 19:13:39;;;;;;;10.07;5.55;;;;;;;13.16;55.87;100776.97;10055718;29;20052;-77
2023/06/01 19:18:49;;;;;;;9.15;6.30;;;;;;;13.09;56.12;100773.09;10040278;29;20077;-77
2023/06/01 19:23:53;;;;;;;11.82;5.93;;;;;;;12.91;56.71;100772.81;10051770;29;20061;-76
2023/06/01 19:29:01;;;;;;;10.00;5.47;;;;;;;13.05;56.77;100777.88;10054978;29;20429;-75
2023/06/01 19:34:07;;;;;;;10.38;5.38;;;;;;;12.71;57.19;100785.28;10054997;29;20484;-77
2023/06/01 19:39:13;;;;;;;7.80;4.95;;;;;;;12.82;57.29;100786.09;10054389;29;20065;-77
2023/06/01 19:44:17;;;;;;;9.65;4.25;;;;;;;12.98;56.75;100774.88;10037855;29;20045;-77
2023/06/01 19:49:23;;;;;;;12.10;5.28;;;;;;;12.65;57.37;100775.88;10040998;29;20056;-76
2023/06/01 19:54:26;;;;;;;12.50;5.03;;;;;;;12.47;57.81;100786.34;10036868;29;21422;-79
2023/06/01 19:59:30;;;;;;;12.18;4.45;;;;;;;12.64;57.78;100790.31;10053858;29;20398;-76
2023/06/01 20:04:34;;;;;;;11.43;4.38;;;;;;;12.45;58.51;100785.63;10053829;29;20056;-77
2023/06/01 20:09:37;;;;;;;10.02;4.20;;;;;;;12.70;57.65;100791.66;10037192;29;20053;-76
2023/06/01 20:14:40;;;;;;;8.35;4.38;;;;;;;12.39;57.81;100797.75;10038952;29;20428;-76
2023/06/01 20:19:44;;;;;;;10.70;4.07;;;;;;;12.29;58.25;100791.41;10052361;29;20045;-77
2023/06/01 20:24:47;;;;;;;8.93;4.38;;;;;;;12.47;57.95;100793.56;10040837;29;25073;-77
2023/06/01 20:29:50;;;;;;;9.73;3.50;;;;;;;12.66;57.40;100795.59;10057933;29;20611;-78
2023/06/01 20:34:54;;;;;;;7.10;4.38;;;;;;;12.67;57.65;100791.91;10051449;29;20061;-75
2023/06/01 20:39:57;;;;;;;9.85;4.20;;;;;;;12.68;57.64;100794.50;10037377;29;20493;-76
2023/06/01 20:45:01;;;;;;;8.60;3.70;;;;;;;12.76;57.43;100796.56;10051808;29;20054;-76
2023/06/01 20:50:07;;;;;;;9.88;3.90;;;;;;;12.28;57.82;100800.47;10050901;29;20072;-76
2023/06/01 20:55:10;;;;;;;8.93;4.13;;;;;;;12.47;58.04;100807.03;10051131;29;20055;-77
2023/06/01 21:00:14;;;;;;;9.48;3.53;;;;;;;12.39;57.85;100802.28;10054823;29;20041;-77
2023/06/01 21:05:19;;;;;;;11.57;3.50;;;;;;;12.25;57.81;100799.84;10049858;29;20080;-76
2023/06/01 21:10:22;;;;;;;8.45;3.38;;;;;;;12.32;58.02;100788.47;10050511;29;20049;-77
2023/06/01 21:15:25;;;;;;;6.47;3.90;;;;;;;12.48;57.52;100800.66;10052117;29;20049;-78
2023/06/01 21:20:30;;;;;;;5.88;3.33;;;;;;;12.43;57.34;100802.91;10042902;29;20175;-77
2023/06/01 21:25:33;;;;;;;7.88;3.30;;;;;;;12.39;56.32;100799.59;10051196;29;20056;-77
2023/06/01 21:30:39;;;;;;;8.60;3.00;;;;;;;12.43;56.57;100801.06;10041042;29;20049;-76
2023/06/01 21:35:44;;;;;;;5.35;2.95;;;;;;;12.39;56.95;100800.44;10055100;29;20061;-76
2023/06/01 21:40:49;;;;;;;10.07;3.05;;;;;;;12.39;57.16;100791.50;10054540;29;20057;-75
2023/06/01 21:45:52;;;;;;;6.82;3.20;;;;;;;12.30;57.51;100789.56;10069512;29;20539;-78
2023/06/01 21:50:57;;;;;;;7.97;3.03;;;;;;;12.27;57.76;100798.72;10099409;29;20519;-77
2023/06/01 21:56:00;;;;;;;11.25;3.75;;;;;;;12.29;57.42;100795.97;10098458;29;20045;-76
2023/06/01 22:01:03;;;;;;;8.82;3.92;;;;;;;12.17;57.14;100801.31;10091274;29;20048;-77
2023/06/01 22:06:07;;;;;;;7.38;3.63;;;;;;;12.25;57.13;100800.69;10087112;29;20101;-77
2023/06/01 22:11:10;;;;;;;10.82;3.65;;;;;;;12.28;57.17;100788.81;10094158;29;20037;-76
2023/06/01 22:16:13;;;;;;;9.73;3.70;;;;;;;12.17;57.16;100790.53;10095917;29;20119;-75
2023/06/01 22:21:20;;;;;;;6.50;3.28;;;;;;;12.12;57.49;100797.28;10095443;29;20465;-78
2023/06/01 22:26:23;;;;;;;12.02;4.13;;;;;;;12.14;57.14;100801.56;10094480;29;20077;-77
2023/06/01 22:31:26;;;;;;;7.78;3.30;;;;;;;12.10;56.49;100801.94;10078411;29;20052;-78
2023/06/01 22:36:30;;;;;;;11.82;3.78;;;;;;;12.10;56.45;100793.88;10094424;29;20572;-77
2023/06/01 22:41:33;;;;;;;10.20;3.80;;;;;;;12.04;56.32;100806.00;10094761;29;20093;-76
2023/06/01 22:46:36;;;;;;;14.70;4.53;;;;;;;11.98;56.34;100800.22;10090851;29;20715;-76
2023/06/01 22:51:41;;;;;;;11.77;4.65;;;;;;;11.91;56.64;100806.13;10091181;29;20526;-78
2023/06/01 22:56:44;;;;;;;14.32;4.50;;;;;;;11.86;56.20;100804.78;10093154;29;20048;-77
2023/06/01 23:01:47;;;;;;;8.68;4.07;;;;;;;11.77;56.24;100813.59;10092805;29;20545;-77
2023/06/01 23:06:53;;;;;;;11.43;4.10;;;;;;;11.77;56.10;100818.97;10093091;29;20076;-76